sensor_id;sensor_type;location;lat;lon;timestamp;P1;durP1;ratioP1;P2;durP2;ratioP2
56537;SDS011;42435;53.292;6.000;2023-05-10T00:00:02;19.90;;;11.85;;
56537;SDS011;42435;53.292;6.000;2023-05-10T00:02:29;18.73;;;10.88;;
56537;SDS011;42435;53.292;6.000;2023-05-10T00:04:55;18.77;;;10.68;;
56537;SDS011;42435;53.292;6.000;2023-05-10T00:07:20;16.98;;;10.40;;
56537;SDS011;42435;53.292;6.000;2023-05-10T00:09:46;14.63;;;9.38;;
56537;SDS011;42435;53.292;6.000;2023-05-10T00:12:12;13.23;;;8.60;;
56537;SDS011;42435;53.292;6.000;2023-05-10T00:14:40;11.88;;;7.85;;
56537;SDS011;42435;53.292;6.000;2023-05-10T00:17:06;9.75;;;7.32;;
56537;SDS011;42435;53.292;6.000;2023-05-10T00:19:31;9.10;;;7.10;;
56537;SDS011;42435;53.292;6.000;2023-05-10T00:21:57;8.98;;;7.00;;
56537;SDS011;42435;53.292;6.000;2023-05-10T00:24:23;8.45;;;5.90;;
56537;SDS011;42435;53.292;6.000;2023-05-10T00:26:48;8.93;;;6.63;;
56537;SDS011;42435;53.292;6.000;2023-05-10T00:29:14;7.88;;;6.50;;
56537;SDS011;42435;53.292;6.000;2023-05-10T00:31:39;7.78;;;6.40;;
56537;SDS011;42435;53.292;6.000;2023-05-10T00:34:05;7.05;;;6.20;;
56537;SDS011;42435;53.292;6.000;2023-05-10T00:36:32;6.88;;;6.18;;
56537;SDS011;42435;53.292;6.000;2023-05-10T00:38:57;6.57;;;5.60;;
56537;SDS011;42435;53.292;6.000;2023-05-10T00:41:23;5.60;;;5.00;;
56537;SDS011;42435;53.292;6.000;2023-05-10T00:43:49;5.95;;;5.20;;
56537;SDS011;42435;53.292;6.000;2023-05-10T00:46:15;5.63;;;5.13;;
56537;SDS011;42435;53.292;6.000;2023-05-10T00:48:41;6.18;;;5.45;;
56537;SDS011;42435;53.292;6.000;2023-05-10T00:51:08;6.28;;;5.47;;
56537;SDS011;42435;53.292;6.000;2023-05-10T00:53:34;6.53;;;5.78;;
56537;SDS011;42435;53.292;6.000;2023-05-10T00:56:04;7.45;;;6.68;;
56537;SDS011;42435;53.292;6.000;2023-05-10T00:58:30;8.93;;;6.30;;
56537;SDS011;42435;53.292;6.000;2023-05-10T01:00:56;8.48;;;7.38;;
56537;SDS011;42435;53.292;6.000;2023-05-10T01:03:22;8.75;;;7.13;;
56537;SDS011;42435;53.292;6.000;2023-05-10T01:05:49;9.88;;;8.35;;
56537;SDS011;42435;53.292;6.000;2023-05-10T01:08:15;9.75;;;8.32;;
56537;SDS011;42435;53.292;6.000;2023-05-10T01:10:41;11.30;;;8.88;;
56537;SDS011;42435;53.292;6.000;2023-05-10T01:13:07;10.80;;;8.88;;
56537;SDS011;42435;53.292;6.000;2023-05-10T01:15:37;10.10;;;9.00;;
56537;SDS011;42435;53.292;6.000;2023-05-10T01:18:03;10.23;;;8.95;;
56537;SDS011;42435;53.292;6.000;2023-05-10T01:20:31;12.07;;;9.27;;
56537;SDS011;42435;53.292;6.000;2023-05-10T01:23:50;12.95;;;10.23;;
56537;SDS011;42435;53.292;6.000;2023-05-10T01:26:14;15.48;;;11.07;;
56537;SDS011;42435;53.292;6.000;2023-05-10T01:34:59;21.83;;;13.85;;
56537;SDS011;42435;53.292;6.000;2023-05-10T01:37:33;26.02;;;14.80;;
56537;SDS011;42435;53.292;6.000;2023-05-10T01:40:26;26.90;;;15.85;;
56537;SDS011;42435;53.292;6.000;2023-05-10T01:43:03;29.83;;;16.37;;
56537;SDS011;42435;53.292;6.000;2023-05-10T01:48:25;31.40;;;16.00;;
56537;SDS011;42435;53.292;6.000;2023-05-10T01:50:53;28.45;;;14.77;;
56537;SDS011;42435;53.292;6.000;2023-05-10T01:53:21;25.42;;;13.07;;
56537;SDS011;42435;53.292;6.000;2023-05-10T01:55:49;28.88;;;13.75;;
56537;SDS011;42435;53.292;6.000;2023-05-10T01:58:21;21.48;;;12.35;;
56537;SDS011;42435;53.292;6.000;2023-05-10T02:00:52;17.55;;;11.27;;
56537;SDS011;42435;53.292;6.000;2023-05-10T02:03:20;18.17;;;11.43;;
56537;SDS011;42435;53.292;6.000;2023-05-10T02:05:49;25.70;;;12.50;;
56537;SDS011;42435;53.292;6.000;2023-05-10T02:08:16;16.88;;;11.23;;
56537;SDS011;42435;53.292;6.000;2023-05-10T02:10:44;17.70;;;10.93;;
56537;SDS011;42435;53.292;6.000;2023-05-10T02:13:11;13.68;;;10.45;;
56537;SDS011;42435;53.292;6.000;2023-05-10T02:15:38;16.50;;;11.25;;
56537;SDS011;42435;53.292;6.000;2023-05-10T02:18:06;15.32;;;11.02;;
56537;SDS011;42435;53.292;6.000;2023-05-10T02:20:34;18.15;;;12.13;;
56537;SDS011;42435;53.292;6.000;2023-05-10T02:23:03;23.45;;;13.80;;
56537;SDS011;42435;53.292;6.000;2023-05-10T02:25:30;16.17;;;12.02;;
56537;SDS011;42435;53.292;6.000;2023-05-10T02:27:57;15.95;;;11.55;;
56537;SDS011;42435;53.292;6.000;2023-05-10T02:30:26;15.38;;;11.80;;
56537;SDS011;42435;53.292;6.000;2023-05-10T02:32:54;16.65;;;11.50;;
56537;SDS011;42435;53.292;6.000;2023-05-10T02:35:21;14.80;;;11.95;;
56537;SDS011;42435;53.292;6.000;2023-05-10T02:37:48;11.25;;;10.05;;
56537;SDS011;42435;53.292;6.000;2023-05-10T02:40:16;13.38;;;9.70;;
56537;SDS011;42435;53.292;6.000;2023-05-10T02:42:43;9.18;;;8.18;;
56537;SDS011;42435;53.292;6.000;2023-05-10T02:45:11;8.32;;;7.45;;
56537;SDS011;42435;53.292;6.000;2023-05-10T02:47:39;7.95;;;6.97;;
56537;SDS011;42435;53.292;6.000;2023-05-10T02:50:05;11.48;;;7.05;;
56537;SDS011;42435;53.292;6.000;2023-05-10T02:52:36;7.00;;;6.28;;
56537;SDS011;42435;53.292;6.000;2023-05-10T02:55:16;8.77;;;7.25;;
56537;SDS011;42435;53.292;6.000;2023-05-10T02:57:57;7.72;;;6.93;;
56537;SDS011;42435;53.292;6.000;2023-05-10T03:00:25;8.48;;;7.60;;
56537;SDS011;42435;53.292;6.000;2023-05-10T03:02:51;8.10;;;7.30;;
56537;SDS011;42435;53.292;6.000;2023-05-10T03:05:16;9.20;;;8.05;;
56537;SDS011;42435;53.292;6.000;2023-05-10T03:07:44;10.73;;;7.72;;
56537;SDS011;42435;53.292;6.000;2023-05-10T03:10:10;11.32;;;7.90;;
56537;SDS011;42435;53.292;6.000;2023-05-10T03:15:46;9.75;;;8.23;;
56537;SDS011;42435;53.292;6.000;2023-05-10T03:18:18;9.68;;;8.07;;
56537;SDS011;42435;53.292;6.000;2023-05-10T03:20:48;11.30;;;8.55;;
56537;SDS011;42435;53.292;6.000;2023-05-10T03:25:52;13.52;;;9.90;;
56537;SDS011;42435;53.292;6.000;2023-05-10T03:28:18;13.32;;;9.98;;
56537;SDS011;42435;53.292;6.000;2023-05-10T03:30:46;12.75;;;9.77;;
56537;SDS011;42435;53.292;6.000;2023-05-10T03:33:13;15.88;;;10.68;;
56537;SDS011;42435;53.292;6.000;2023-05-10T03:35:39;16.60;;;11.65;;
56537;SDS011;42435;53.292;6.000;2023-05-10T03:38:04;16.25;;;11.98;;
56537;SDS011;42435;53.292;6.000;2023-05-10T03:40:48;17.10;;;12.35;;
56537;SDS011;42435;53.292;6.000;2023-05-10T03:43:14;17.88;;;13.25;;
56537;SDS011;42435;53.292;6.000;2023-05-10T03:45:39;32.65;;;15.40;;
56537;SDS011;42435;53.292;6.000;2023-05-10T03:48:05;42.55;;;17.52;;
56537;SDS011;42435;53.292;6.000;2023-05-10T03:50:31;31.52;;;16.17;;
56537;SDS011;42435;53.292;6.000;2023-05-10T03:52:56;25.73;;;15.25;;
56537;SDS011;42435;53.292;6.000;2023-05-10T03:55:22;26.65;;;15.60;;
56537;SDS011;42435;53.292;6.000;2023-05-10T03:57:48;31.17;;;16.20;;
56537;SDS011;42435;53.292;6.000;2023-05-10T04:00:14;33.28;;;16.75;;
56537;SDS011;42435;53.292;6.000;2023-05-10T04:02:41;27.33;;;14.52;;
56537;SDS011;42435;53.292;6.000;2023-05-10T04:05:07;24.40;;;14.23;;
56537;SDS011;42435;53.292;6.000;2023-05-10T04:07:36;25.55;;;14.48;;
56537;SDS011;42435;53.292;6.000;2023-05-10T04:10:01;32.55;;;16.05;;
56537;SDS011;42435;53.292;6.000;2023-05-10T04:12:27;29.67;;;14.93;;
56537;SDS011;42435;53.292;6.000;2023-05-10T04:14:53;30.80;;;14.80;;
56537;SDS011;42435;53.292;6.000;2023-05-10T04:17:18;32.85;;;16.80;;
56537;SDS011;42435;53.292;6.000;2023-05-10T04:19:44;37.90;;;17.70;;
56537;SDS011;42435;53.292;6.000;2023-05-10T04:22:09;48.35;;;20.58;;
56537;SDS011;42435;53.292;6.000;2023-05-10T04:24:35;49.72;;;20.40;;
56537;SDS011;42435;53.292;6.000;2023-05-10T04:27:01;92.55;;;27.70;;
56537;SDS011;42435;53.292;6.000;2023-05-10T04:29:27;58.17;;;22.35;;
56537;SDS011;42435;53.292;6.000;2023-05-10T04:31:52;45.47;;;18.45;;
56537;SDS011;42435;53.292;6.000;2023-05-10T04:34:19;37.53;;;17.83;;
56537;SDS011;42435;53.292;6.000;2023-05-10T04:36:45;41.63;;;18.00;;
56537;SDS011;42435;53.292;6.000;2023-05-10T04:39:11;40.70;;;19.50;;
56537;SDS011;42435;53.292;6.000;2023-05-10T04:41:37;39.65;;;19.05;;
56537;SDS011;42435;53.292;6.000;2023-05-10T04:44:03;45.13;;;22.98;;
56537;SDS011;42435;53.292;6.000;2023-05-10T04:46:29;46.47;;;22.17;;
56537;SDS011;42435;53.292;6.000;2023-05-10T04:48:54;49.95;;;24.50;;
56537;SDS011;42435;53.292;6.000;2023-05-10T04:51:23;57.42;;;25.95;;
56537;SDS011;42435;53.292;6.000;2023-05-10T04:53:48;71.88;;;29.95;;
56537;SDS011;42435;53.292;6.000;2023-05-10T04:56:14;102.18;;;35.38;;
56537;SDS011;42435;53.292;6.000;2023-05-10T04:58:41;56.83;;;29.58;;
56537;SDS011;42435;53.292;6.000;2023-05-10T05:01:07;56.20;;;26.00;;
56537;SDS011;42435;53.292;6.000;2023-05-10T05:03:37;47.22;;;23.90;;
56537;SDS011;42435;53.292;6.000;2023-05-10T05:06:06;43.80;;;23.45;;
56537;SDS011;42435;53.292;6.000;2023-05-10T05:08:32;34.65;;;22.15;;
56537;SDS011;42435;53.292;6.000;2023-05-10T05:10:57;28.80;;;20.23;;
56537;SDS011;42435;53.292;6.000;2023-05-10T05:13:24;28.17;;;19.60;;
56537;SDS011;42435;53.292;6.000;2023-05-10T05:15:49;55.28;;;23.75;;
56537;SDS011;42435;53.292;6.000;2023-05-10T05:18:15;22.70;;;17.33;;
56537;SDS011;42435;53.292;6.000;2023-05-10T05:20:41;19.25;;;14.55;;
56537;SDS011;42435;53.292;6.000;2023-05-10T05:23:06;16.83;;;11.40;;
56537;SDS011;42435;53.292;6.000;2023-05-10T05:25:33;9.57;;;7.40;;
56537;SDS011;42435;53.292;6.000;2023-05-10T05:27:58;6.70;;;5.63;;
56537;SDS011;42435;53.292;6.000;2023-05-10T05:30:24;10.10;;;5.88;;
56537;SDS011;42435;53.292;6.000;2023-05-10T05:32:51;10.40;;;7.00;;
56537;SDS011;42435;53.292;6.000;2023-05-10T05:35:17;9.73;;;6.82;;
56537;SDS011;42435;53.292;6.000;2023-05-10T05:37:46;10.93;;;8.60;;
56537;SDS011;42435;53.292;6.000;2023-05-10T05:40:14;13.23;;;9.32;;
56537;SDS011;42435;53.292;6.000;2023-05-10T05:42:40;14.05;;;10.82;;
56537;SDS011;42435;53.292;6.000;2023-05-10T05:45:06;14.18;;;10.13;;
56537;SDS011;42435;53.292;6.000;2023-05-10T05:47:33;11.90;;;9.80;;
56537;SDS011;42435;53.292;6.000;2023-05-10T05:50:02;15.95;;;10.85;;
56537;SDS011;42435;53.292;6.000;2023-05-10T05:52:29;18.58;;;11.70;;
56537;SDS011;42435;53.292;6.000;2023-05-10T05:54:55;12.13;;;10.10;;
56537;SDS011;42435;53.292;6.000;2023-05-10T05:57:21;12.35;;;9.88;;
56537;SDS011;42435;53.292;6.000;2023-05-10T05:59:46;17.42;;;10.40;;
56537;SDS011;42435;53.292;6.000;2023-05-10T06:02:12;8.10;;;6.70;;
56537;SDS011;42435;53.292;6.000;2023-05-10T06:04:38;8.45;;;6.43;;
56537;SDS011;42435;53.292;6.000;2023-05-10T06:07:03;5.60;;;4.72;;
56537;SDS011;42435;53.292;6.000;2023-05-10T06:09:29;4.60;;;4.20;;
56537;SDS011;42435;53.292;6.000;2023-05-10T06:11:55;4.70;;;4.20;;
56537;SDS011;42435;53.292;6.000;2023-05-10T06:14:21;5.43;;;4.55;;
56537;SDS011;42435;53.292;6.000;2023-05-10T06:16:48;5.70;;;5.07;;
56537;SDS011;42435;53.292;6.000;2023-05-10T06:19:13;6.68;;;5.97;;
56537;SDS011;42435;53.292;6.000;2023-05-10T06:21:39;6.90;;;6.07;;
56537;SDS011;42435;53.292;6.000;2023-05-10T06:24:05;6.88;;;5.00;;
56537;SDS011;42435;53.292;6.000;2023-05-10T06:26:31;5.53;;;4.95;;
56537;SDS011;42435;53.292;6.000;2023-05-10T06:28:57;5.25;;;4.72;;
56537;SDS011;42435;53.292;6.000;2023-05-10T06:31:24;6.65;;;5.32;;
56537;SDS011;42435;53.292;6.000;2023-05-10T06:33:49;7.10;;;5.82;;
56537;SDS011;42435;53.292;6.000;2023-05-10T06:36:15;9.80;;;6.45;;
56537;SDS011;42435;53.292;6.000;2023-05-10T06:38:41;10.73;;;6.68;;
56537;SDS011;42435;53.292;6.000;2023-05-10T06:41:06;7.78;;;6.00;;
56537;SDS011;42435;53.292;6.000;2023-05-10T06:43:35;11.68;;;7.60;;
56537;SDS011;42435;53.292;6.000;2023-05-10T06:46:04;13.50;;;7.88;;
56537;SDS011;42435;53.292;6.000;2023-05-10T06:48:30;9.75;;;6.53;;
56537;SDS011;42435;53.292;6.000;2023-05-10T06:50:56;6.88;;;5.32;;
56537;SDS011;42435;53.292;6.000;2023-05-10T06:53:22;7.95;;;5.20;;
56537;SDS011;42435;53.292;6.000;2023-05-10T06:55:48;8.10;;;6.05;;
56537;SDS011;42435;53.292;6.000;2023-05-10T06:58:14;7.35;;;5.68;;
56537;SDS011;42435;53.292;6.000;2023-05-10T07:00:39;8.05;;;5.85;;
56537;SDS011;42435;53.292;6.000;2023-05-10T07:03:07;9.23;;;6.90;;
56537;SDS011;42435;53.292;6.000;2023-05-10T07:05:35;12.30;;;7.03;;
56537;SDS011;42435;53.292;6.000;2023-05-10T07:08:01;9.50;;;6.47;;
56537;SDS011;42435;53.292;6.000;2023-05-10T07:10:27;10.13;;;6.55;;
56537;SDS011;42435;53.292;6.000;2023-05-10T07:12:52;8.43;;;6.38;;
56537;SDS011;42435;53.292;6.000;2023-05-10T07:15:18;9.18;;;6.32;;
56537;SDS011;42435;53.292;6.000;2023-05-10T07:17:44;11.70;;;7.32;;
56537;SDS011;42435;53.292;6.000;2023-05-10T07:20:10;15.65;;;7.65;;
56537;SDS011;42435;53.292;6.000;2023-05-10T07:22:36;10.98;;;7.13;;
56537;SDS011;42435;53.292;6.000;2023-05-10T07:25:02;11.50;;;7.43;;
56537;SDS011;42435;53.292;6.000;2023-05-10T07:27:27;9.70;;;7.53;;
56537;SDS011;42435;53.292;6.000;2023-05-10T07:29:54;13.85;;;8.48;;
56537;SDS011;42435;53.292;6.000;2023-05-10T07:32:21;12.32;;;8.25;;
56537;SDS011;42435;53.292;6.000;2023-05-10T07:34:48;10.93;;;8.18;;
56537;SDS011;42435;53.292;6.000;2023-05-10T07:37:13;14.05;;;7.57;;
56537;SDS011;42435;53.292;6.000;2023-05-10T07:39:39;11.63;;;7.00;;
56537;SDS011;42435;53.292;6.000;2023-05-10T07:42:05;11.38;;;7.72;;
56537;SDS011;42435;53.292;6.000;2023-05-10T07:44:30;10.63;;;7.28;;
56537;SDS011;42435;53.292;6.000;2023-05-10T07:46:56;11.48;;;7.82;;
56537;SDS011;42435;53.292;6.000;2023-05-10T07:49:21;11.30;;;7.07;;
56537;SDS011;42435;53.292;6.000;2023-05-10T07:51:49;11.48;;;6.90;;
56537;SDS011;42435;53.292;6.000;2023-05-10T07:54:15;11.07;;;6.70;;
56537;SDS011;42435;53.292;6.000;2023-05-10T07:56:40;11.02;;;7.20;;
56537;SDS011;42435;53.292;6.000;2023-05-10T07:59:14;9.82;;;6.90;;
56537;SDS011;42435;53.292;6.000;2023-05-10T08:01:41;14.05;;;7.03;;
56537;SDS011;42435;53.292;6.000;2023-05-10T08:04:07;12.57;;;6.78;;
56537;SDS011;42435;53.292;6.000;2023-05-10T08:06:36;10.40;;;6.60;;
56537;SDS011;42435;53.292;6.000;2023-05-10T08:09:02;11.18;;;6.85;;
56537;SDS011;42435;53.292;6.000;2023-05-10T08:11:27;11.40;;;6.10;;
56537;SDS011;42435;53.292;6.000;2023-05-10T08:13:53;6.82;;;4.82;;
56537;SDS011;42435;53.292;6.000;2023-05-10T08:16:19;5.93;;;4.78;;
56537;SDS011;42435;53.292;6.000;2023-05-10T08:18:45;6.75;;;4.20;;
56537;SDS011;42435;53.292;6.000;2023-05-10T08:21:12;7.80;;;5.15;;
56537;SDS011;42435;53.292;6.000;2023-05-10T08:23:38;5.00;;;3.50;;
56537;SDS011;42435;53.292;6.000;2023-05-10T08:26:04;6.65;;;3.85;;
56537;SDS011;42435;53.292;6.000;2023-05-10T08:28:30;4.40;;;3.25;;
56537;SDS011;42435;53.292;6.000;2023-05-10T08:30:57;4.13;;;2.90;;
56537;SDS011;42435;53.292;6.000;2023-05-10T08:33:24;10.43;;;4.88;;
56537;SDS011;42435;53.292;6.000;2023-05-10T08:35:50;4.88;;;3.70;;
56537;SDS011;42435;53.292;6.000;2023-05-10T08:38:16;6.05;;;3.72;;
56537;SDS011;42435;53.292;6.000;2023-05-10T08:40:43;5.65;;;4.20;;
56537;SDS011;42435;53.292;6.000;2023-05-10T08:43:10;5.57;;;3.55;;
56537;SDS011;42435;53.292;6.000;2023-05-10T08:45:37;6.82;;;4.60;;
56537;SDS011;42435;53.292;6.000;2023-05-10T08:48:08;6.55;;;4.28;;
56537;SDS011;42435;53.292;6.000;2023-05-10T08:50:35;4.75;;;4.05;;
56537;SDS011;42435;53.292;6.000;2023-05-10T08:53:04;6.75;;;4.57;;
56537;SDS011;42435;53.292;6.000;2023-05-10T08:55:38;5.57;;;4.18;;
56537;SDS011;42435;53.292;6.000;2023-05-10T08:58:05;5.35;;;4.57;;
56537;SDS011;42435;53.292;6.000;2023-05-10T09:00:33;4.20;;;3.80;;
56537;SDS011;42435;53.292;6.000;2023-05-10T09:03:00;8.50;;;4.78;;
56537;SDS011;42435;53.292;6.000;2023-05-10T09:05:26;5.97;;;4.30;;
56537;SDS011;42435;53.292;6.000;2023-05-10T09:07:52;6.68;;;4.97;;
56537;SDS011;42435;53.292;6.000;2023-05-10T09:10:18;8.45;;;6.43;;
56537;SDS011;42435;53.292;6.000;2023-05-10T09:12:48;6.85;;;5.80;;
56537;SDS011;42435;53.292;6.000;2023-05-10T09:15:17;7.03;;;5.22;;
56537;SDS011;42435;53.292;6.000;2023-05-10T09:17:45;9.18;;;6.80;;
56537;SDS011;42435;53.292;6.000;2023-05-10T09:20:11;10.20;;;7.10;;
56537;SDS011;42435;53.292;6.000;2023-05-10T09:22:37;10.98;;;8.70;;
56537;SDS011;42435;53.292;6.000;2023-05-10T09:25:03;8.88;;;6.95;;
56537;SDS011;42435;53.292;6.000;2023-05-10T09:27:44;10.05;;;7.28;;
56537;SDS011;42435;53.292;6.000;2023-05-10T09:30:17;9.00;;;6.80;;
56537;SDS011;42435;53.292;6.000;2023-05-10T09:32:52;10.20;;;7.80;;
56537;SDS011;42435;53.292;6.000;2023-05-10T09:35:21;8.43;;;6.85;;
56537;SDS011;42435;53.292;6.000;2023-05-10T09:37:51;10.10;;;7.15;;
56537;SDS011;42435;53.292;6.000;2023-05-10T09:40:19;9.45;;;7.32;;
56537;SDS011;42435;53.292;6.000;2023-05-10T09:42:57;10.52;;;7.38;;
56537;SDS011;42435;53.292;6.000;2023-05-10T09:45:26;12.63;;;8.40;;
56537;SDS011;42435;53.292;6.000;2023-05-10T09:47:54;11.77;;;7.78;;
56537;SDS011;42435;53.292;6.000;2023-05-10T09:50:20;12.63;;;8.25;;
56537;SDS011;42435;53.292;6.000;2023-05-10T09:55:17;13.30;;;9.05;;
56537;SDS011;42435;53.292;6.000;2023-05-10T09:57:43;13.38;;;8.65;;
56537;SDS011;42435;53.292;6.000;2023-05-10T10:00:09;15.05;;;9.70;;
56537;SDS011;42435;53.292;6.000;2023-05-10T10:02:35;16.38;;;8.88;;
56537;SDS011;42435;53.292;6.000;2023-05-10T10:05:06;14.43;;;9.10;;
56537;SDS011;42435;53.292;6.000;2023-05-10T10:07:31;15.57;;;8.93;;
56537;SDS011;42435;53.292;6.000;2023-05-10T10:09:59;13.07;;;9.07;;
56537;SDS011;42435;53.292;6.000;2023-05-10T10:12:25;14.45;;;9.65;;
56537;SDS011;42435;53.292;6.000;2023-05-10T10:14:52;16.80;;;10.30;;
56537;SDS011;42435;53.292;6.000;2023-05-10T10:17:20;17.30;;;10.15;;
56537;SDS011;42435;53.292;6.000;2023-05-10T10:19:46;15.77;;;10.13;;
56537;SDS011;42435;53.292;6.000;2023-05-10T10:22:13;14.95;;;10.48;;
56537;SDS011;42435;53.292;6.000;2023-05-10T10:24:41;14.23;;;9.35;;
56537;SDS011;42435;53.292;6.000;2023-05-10T10:35:38;13.17;;;8.30;;
56537;SDS011;42435;53.292;6.000;2023-05-10T10:38:07;10.60;;;7.28;;
56537;SDS011;42435;53.292;6.000;2023-05-10T10:40:37;10.73;;;7.30;;
56537;SDS011;42435;53.292;6.000;2023-05-10T10:43:23;13.30;;;7.95;;
56537;SDS011;42435;53.292;6.000;2023-05-10T10:46:11;12.00;;;7.82;;
56537;SDS011;42435;53.292;6.000;2023-05-10T10:48:40;11.85;;;7.80;;
56537;SDS011;42435;53.292;6.000;2023-05-10T10:51:07;11.55;;;8.00;;
56537;SDS011;42435;53.292;6.000;2023-05-10T10:53:32;12.70;;;8.15;;
56537;SDS011;42435;53.292;6.000;2023-05-10T10:56:02;10.27;;;7.57;;
56537;SDS011;42435;53.292;6.000;2023-05-10T10:58:39;10.18;;;7.70;;
56537;SDS011;42435;53.292;6.000;2023-05-10T11:01:13;11.38;;;7.15;;
56537;SDS011;42435;53.292;6.000;2023-05-10T11:06:28;8.63;;;6.13;;
56537;SDS011;42435;53.292;6.000;2023-05-10T11:08:56;7.95;;;6.40;;
56537;SDS011;42435;53.292;6.000;2023-05-10T11:11:22;8.80;;;6.70;;
56537;SDS011;42435;53.292;6.000;2023-05-10T11:13:48;11.70;;;7.60;;
56537;SDS011;42435;53.292;6.000;2023-05-10T11:23:53;11.02;;;8.77;;
56537;SDS011;42435;53.292;6.000;2023-05-10T11:26:24;11.48;;;9.13;;
56537;SDS011;42435;53.292;6.000;2023-05-10T11:28:51;11.48;;;8.40;;
56537;SDS011;42435;53.292;6.000;2023-05-10T11:31:21;10.98;;;7.75;;
56537;SDS011;42435;53.292;6.000;2023-05-10T11:33:49;10.93;;;7.95;;
56537;SDS011;42435;53.292;6.000;2023-05-10T11:36:17;8.82;;;6.75;;
56537;SDS011;42435;53.292;6.000;2023-05-10T11:38:45;11.60;;;7.70;;
56537;SDS011;42435;53.292;6.000;2023-05-10T11:41:15;12.48;;;8.15;;
56537;SDS011;42435;53.292;6.000;2023-05-10T11:43:46;12.55;;;8.35;;
56537;SDS011;42435;53.292;6.000;2023-05-10T11:46:14;10.30;;;8.40;;
56537;SDS011;42435;53.292;6.000;2023-05-10T11:48:42;10.75;;;7.82;;
56537;SDS011;42435;53.292;6.000;2023-05-10T11:51:11;12.55;;;8.52;;
56537;SDS011;42435;53.292;6.000;2023-05-10T11:53:36;10.80;;;8.10;;
56537;SDS011;42435;53.292;6.000;2023-05-10T11:56:09;15.02;;;9.15;;
56537;SDS011;42435;53.292;6.000;2023-05-10T11:58:36;15.27;;;9.90;;
56537;SDS011;42435;53.292;6.000;2023-05-10T12:01:03;15.73;;;10.38;;
56537;SDS011;42435;53.292;6.000;2023-05-10T12:03:30;15.35;;;10.68;;
56537;SDS011;42435;53.292;6.000;2023-05-10T12:05:56;16.67;;;11.15;;
56537;SDS011;42435;53.292;6.000;2023-05-10T12:08:23;17.67;;;11.32;;
56537;SDS011;42435;53.292;6.000;2023-05-10T12:10:51;14.90;;;10.57;;
56537;SDS011;42435;53.292;6.000;2023-05-10T12:13:21;12.15;;;8.70;;
56537;SDS011;42435;53.292;6.000;2023-05-10T12:15:46;16.48;;;10.38;;
56537;SDS011;42435;53.292;6.000;2023-05-10T12:18:15;16.65;;;11.18;;
56537;SDS011;42435;53.292;6.000;2023-05-10T12:20:49;13.85;;;9.55;;
56537;SDS011;42435;53.292;6.000;2023-05-10T12:23:21;16.42;;;10.52;;
56537;SDS011;42435;53.292;6.000;2023-05-10T12:25:47;14.15;;;9.00;;
56537;SDS011;42435;53.292;6.000;2023-05-10T12:28:12;13.30;;;9.10;;
56537;SDS011;42435;53.292;6.000;2023-05-10T12:30:38;12.20;;;9.13;;
56537;SDS011;42435;53.292;6.000;2023-05-10T12:33:11;12.15;;;9.23;;
56537;SDS011;42435;53.292;6.000;2023-05-10T12:35:49;10.65;;;7.70;;
56537;SDS011;42435;53.292;6.000;2023-05-10T12:41:17;11.43;;;8.60;;
56537;SDS011;42435;53.292;6.000;2023-05-10T12:43:43;10.50;;;7.97;;
56537;SDS011;42435;53.292;6.000;2023-05-10T12:46:14;11.70;;;8.95;;
56537;SDS011;42435;53.292;6.000;2023-05-10T12:48:43;13.15;;;9.23;;
56537;SDS011;42435;53.292;6.000;2023-05-10T12:51:09;14.77;;;9.60;;
56537;SDS011;42435;53.292;6.000;2023-05-10T12:53:37;14.50;;;9.77;;
56537;SDS011;42435;53.292;6.000;2023-05-10T12:56:06;13.63;;;9.88;;
56537;SDS011;42435;53.292;6.000;2023-05-10T12:58:32;14.85;;;9.82;;
56537;SDS011;42435;53.292;6.000;2023-05-10T13:00:57;14.00;;;10.18;;
56537;SDS011;42435;53.292;6.000;2023-05-10T13:03:24;13.18;;;9.68;;
56537;SDS011;42435;53.292;6.000;2023-05-10T13:05:51;12.40;;;9.32;;
56537;SDS011;42435;53.292;6.000;2023-05-10T13:08:16;11.98;;;9.38;;
56537;SDS011;42435;53.292;6.000;2023-05-10T13:10:43;12.55;;;9.75;;
56537;SDS011;42435;53.292;6.000;2023-05-10T13:13:09;13.38;;;9.23;;
56537;SDS011;42435;53.292;6.000;2023-05-10T13:15:35;14.27;;;10.15;;
56537;SDS011;42435;53.292;6.000;2023-05-10T13:18:00;15.20;;;10.77;;
56537;SDS011;42435;53.292;6.000;2023-05-10T13:20:26;15.27;;;10.80;;
56537;SDS011;42435;53.292;6.000;2023-05-10T13:22:52;13.52;;;9.50;;
56537;SDS011;42435;53.292;6.000;2023-05-10T13:25:18;15.90;;;10.20;;
56537;SDS011;42435;53.292;6.000;2023-05-10T13:27:44;14.93;;;9.65;;
56537;SDS011;42435;53.292;6.000;2023-05-10T13:30:10;15.70;;;11.20;;
56537;SDS011;42435;53.292;6.000;2023-05-10T13:32:38;13.43;;;9.70;;
56537;SDS011;42435;53.292;6.000;2023-05-10T13:35:04;13.60;;;8.88;;
56537;SDS011;42435;53.292;6.000;2023-05-10T13:37:30;13.43;;;8.35;;
56537;SDS011;42435;53.292;6.000;2023-05-10T13:39:57;10.52;;;8.70;;
56537;SDS011;42435;53.292;6.000;2023-05-10T13:42:23;11.18;;;8.30;;
56537;SDS011;42435;53.292;6.000;2023-05-10T13:44:49;11.95;;;8.40;;
56537;SDS011;42435;53.292;6.000;2023-05-10T13:47:15;10.00;;;7.53;;
56537;SDS011;42435;53.292;6.000;2023-05-10T13:49:43;10.05;;;7.40;;
56537;SDS011;42435;53.292;6.000;2023-05-10T13:52:08;10.90;;;7.20;;
56537;SDS011;42435;53.292;6.000;2023-05-10T13:54:35;7.53;;;6.25;;
56537;SDS011;42435;53.292;6.000;2023-05-10T13:57:01;6.05;;;5.35;;
56537;SDS011;42435;53.292;6.000;2023-05-10T13:59:28;7.50;;;6.70;;
56537;SDS011;42435;53.292;6.000;2023-05-10T14:01:53;7.45;;;6.13;;
56537;SDS011;42435;53.292;6.000;2023-05-10T14:04:19;6.60;;;5.60;;
56537;SDS011;42435;53.292;6.000;2023-05-10T14:06:45;5.93;;;4.85;;
56537;SDS011;42435;53.292;6.000;2023-05-10T14:09:11;6.18;;;5.50;;
56537;SDS011;42435;53.292;6.000;2023-05-10T14:11:37;7.70;;;6.05;;
56537;SDS011;42435;53.292;6.000;2023-05-10T14:14:06;7.22;;;5.32;;
56537;SDS011;42435;53.292;6.000;2023-05-10T14:16:32;7.82;;;7.03;;
56537;SDS011;42435;53.292;6.000;2023-05-10T14:18:58;8.60;;;7.70;;
56537;SDS011;42435;53.292;6.000;2023-05-10T14:21:24;8.57;;;7.75;;
56537;SDS011;42435;53.292;6.000;2023-05-10T14:23:50;9.05;;;8.15;;
56537;SDS011;42435;53.292;6.000;2023-05-10T14:26:15;9.02;;;8.13;;
56537;SDS011;42435;53.292;6.000;2023-05-10T14:28:41;9.15;;;8.02;;
56537;SDS011;42435;53.292;6.000;2023-05-10T14:31:07;10.93;;;8.50;;
56537;SDS011;42435;53.292;6.000;2023-05-10T14:33:32;9.70;;;8.27;;
56537;SDS011;42435;53.292;6.000;2023-05-10T14:35:58;9.25;;;8.35;;
56537;SDS011;42435;53.292;6.000;2023-05-10T14:38:24;9.00;;;8.10;;
56537;SDS011;42435;53.292;6.000;2023-05-10T14:40:51;9.65;;;8.35;;
56537;SDS011;42435;53.292;6.000;2023-05-10T14:43:17;9.93;;;8.75;;
56537;SDS011;42435;53.292;6.000;2023-05-10T14:45:42;10.00;;;8.88;;
56537;SDS011;42435;53.292;6.000;2023-05-10T14:48:08;11.05;;;8.85;;
56537;SDS011;42435;53.292;6.000;2023-05-10T14:50:37;9.35;;;8.32;;
56537;SDS011;42435;53.292;6.000;2023-05-10T14:53:03;9.00;;;8.10;;
56537;SDS011;42435;53.292;6.000;2023-05-10T14:55:29;8.32;;;7.22;;
56537;SDS011;42435;53.292;6.000;2023-05-10T14:57:58;8.13;;;7.25;;
56537;SDS011;42435;53.292;6.000;2023-05-10T15:00:23;7.22;;;6.53;;
56537;SDS011;42435;53.292;6.000;2023-05-10T15:02:49;8.00;;;7.18;;
56537;SDS011;42435;53.292;6.000;2023-05-10T15:05:15;6.88;;;6.28;;
56537;SDS011;42435;53.292;6.000;2023-05-10T15:07:41;7.45;;;6.78;;
56537;SDS011;42435;53.292;6.000;2023-05-10T15:10:09;6.35;;;5.75;;
56537;SDS011;42435;53.292;6.000;2023-05-10T15:12:36;6.15;;;5.63;;
56537;SDS011;42435;53.292;6.000;2023-05-10T15:15:01;5.88;;;5.38;;